Time;durP1;ratioP1;P1;durP2;ratioP2;P2;SDS_P1;SDS_P2;PMS_P1;PMS_P2;Temp;Humidity;BMP_temperature;BMP_pressure;BME280_temperature;BME280_humidity;BME280_pressure;Samples;Min_cycle;Max_cycle;Signal;HPM_P1;HPM_P2
2024/01/20 00:00:33;;;;;;;2.60;1.98;;;1.30;99.90;;;;;;5011927;28;20067;-72
2024/01/20 00:02:58;;;;;;;2.00;1.33;;;1.30;99.90;;;;;;5010927;28;20061;-71
2024/01/20 00:05:24;;;;;;;3.22;1.33;;;1.20;99.90;;;;;;5012581;28;20045;-71
2024/01/20 00:07:50;;;;;;;2.00;1.52;;;1.20;99.90;;;;;;5009192;28;20037;-71
2024/01/20 00:10:15;;;;;;;4.63;1.75;;;1.20;99.90;;;;;;5012403;28;20137;-71
2024/01/20 00:12:42;;;;;;;1.02;0.93;;;1.20;99.90;;;;;;5012268;28;20128;-71
2024/01/20 00:15:08;;;;;;;1.65;1.05;;;1.20;99.90;;;;;;5013494;28;20422;-71
2024/01/20 00:17:36;;;;;;;2.22;1.80;;;1.10;99.90;;;;;;5013132;28;20513;-71
2024/01/20 00:20:04;;;;;;;2.08;1.23;;;1.10;99.90;;;;;;5011399;28;20444;-71
2024/01/20 00:22:30;;;;;;;1.70;1.58;;;1.10;99.90;;;;;;5011134;28;20056;-71
2024/01/20 00:24:59;;;;;;;2.45;1.80;;;1.10;99.90;;;;;;5011855;28;20049;-71
2024/01/20 00:27:25;;;;;;;2.65;1.55;;;1.10;99.90;;;;;;4991821;28;20116;-71
2024/01/20 00:29:51;;;;;;;2.08;1.60;;;1.00;99.90;;;;;;5005244;28;20049;-72
2024/01/20 00:32:16;;;;;;;6.68;1.80;;;1.00;99.90;;;;;;5006225;28;20137;-72
2024/01/20 00:34:42;;;;;;;18.42;1.73;;;1.00;99.90;;;;;;5012409;28;20041;-71
2024/01/20 00:37:08;;;;;;;2.65;1.77;;;0.90;99.90;;;;;;5016718;28;20068;-71
2024/01/20 00:39:33;;;;;;;2.80;1.55;;;0.90;99.90;;;;;;5011472;28;20056;-72
2024/01/20 00:41:59;;;;;;;1.23;1.10;;;0.90;99.90;;;;;;5013610;28;20472;-71
2024/01/20 00:44:25;;;;;;;2.00;1.80;;;0.90;99.90;;;;;;5029885;28;20125;-72
2024/01/20 00:46:51;;;;;;;3.33;2.72;;;0.90;99.90;;;;;;5012453;28;20065;-71
2024/01/20 00:49:16;;;;;;;3.25;1.88;;;0.80;99.90;;;;;;5011282;28;20044;-71
2024/01/20 00:51:42;;;;;;;3.20;1.60;;;0.80;99.90;;;;;;5014641;28;20042;-71
2024/01/20 00:54:07;;;;;;;7.35;2.28;;;0.80;99.90;;;;;;5018006;28;20041;-71
2024/01/20 00:56:34;;;;;;;2.38;2.17;;;0.80;99.90;;;;;;5012155;28;20055;-71
2024/01/20 00:58:59;;;;;;;2.80;1.67;;;0.80;99.90;;;;;;5017123;28;20049;-71
2024/01/20 01:01:25;;;;;;;1.95;1.55;;;0.80;99.90;;;;;;5011931;28;20045;-71
2024/01/20 01:03:51;;;;;;;3.65;1.67;;;0.70;99.90;;;;;;5011754;28;20485;-70
2024/01/20 01:06:16;;;;;;;1.77;1.42;;;0.70;99.90;;;;;;5011817;28;20178;-71
2024/01/20 01:08:42;;;;;;;4.43;2.47;;;0.70;99.90;;;;;;5010230;28;20044;-71
2024/01/20 01:11:08;;;;;;;2.28;1.90;;;0.70;99.90;;;;;;5002316;28;20036;-71
2024/01/20 01:13:36;;;;;;;3.58;1.52;;;0.60;99.90;;;;;;5008006;28;20500;-72
2024/01/20 01:16:04;;;;;;;2.17;1.38;;;0.70;99.90;;;;;;5012094;28;20046;-71
2024/01/20 01:18:30;;;;;;;4.78;1.55;;;0.60;99.90;;;;;;5012332;28;20044;-71
2024/01/20 01:20:55;;;;;;;2.00;1.80;;;0.60;99.90;;;;;;5011844;28;20412;-71
2024/01/20 01:23:21;;;;;;;2.30;1.52;;;0.60;99.90;;;;;;5009067;28;20063;-71
2024/01/20 01:25:47;;;;;;;7.80;2.65;;;0.60;99.90;;;;;;5010671;28;20041;-71
2024/01/20 01:28:13;;;;;;;3.55;2.80;;;0.60;99.90;;;;;;5010211;28;20387;-71
2024/01/20 01:30:38;;;;;;;7.68;3.65;;;0.50;99.90;;;;;;5017775;28;20155;-71
2024/01/20 01:33:04;;;;;;;2.03;1.55;;;0.50;99.90;;;;;;4995141;28;20044;-71
2024/01/20 01:35:30;;;;;;;3.22;2.53;;;0.50;99.90;;;;;;5009809;28;20049;-71
2024/01/20 01:37:58;;;;;;;2.58;1.65;;;0.50;99.90;;;;;;5010534;28;20045;-71
2024/01/20 01:40:26;;;;;;;4.70;1.45;;;0.50;99.90;;;;;;5010363;28;20425;-71
2024/01/20 01:42:58;;;;;;;3.25;2.47;;;0.50;99.90;;;;;;5010849;28;20047;-70
2024/01/20 01:45:24;;;;;;;3.10;2.13;;;0.50;99.90;;;;;;5010869;28;20048;-71
2024/01/20 01:47:54;;;;;;;3.28;2.35;;;0.50;99.90;;;;;;5010481;28;20604;-71
2024/01/20 01:50:21;;;;;;;3.17;2.13;;;0.50;99.90;;;;;;5010495;28;20095;-72
2024/01/20 01:52:48;;;;;;;3.90;2.47;;;0.50;99.90;;;;;;5010209;28;20065;-71
2024/01/20 01:55:15;;;;;;;7.32;2.42;;;0.50;99.90;;;;;;5010974;28;20050;-71
2024/01/20 01:57:42;;;;;;;2.63;2.42;;;0.50;99.90;;;;;;5010971;28;20114;-71
2024/01/20 02:00:09;;;;;;;1.65;1.55;;;0.50;99.90;;;;;;5011339;28;20073;-71
2024/01/20 02:02:34;;;;;;;3.05;1.80;;;0.60;99.90;;;;;;5010411;28;20053;-72
2024/01/20 02:05:00;;;;;;;3.40;2.28;;;0.60;99.90;;;;;;5011485;28;20110;-71
2024/01/20 02:07:27;;;;;;;2.83;2.22;;;0.60;99.90;;;;;;4992891;28;20064;-71
2024/01/20 02:09:53;;;;;;;2.53;1.98;;;0.50;99.90;;;;;;5011126;28;20044;-70
2024/01/20 02:12:19;;;;;;;4.45;2.38;;;0.60;99.90;;;;;;5010632;28;20373;-71
2024/01/20 02:14:46;;;;;;;8.23;3.47;;;0.60;99.90;;;;;;5009907;28;20067;-70
2024/01/20 02:17:12;;;;;;;3.25;2.53;;;0.60;99.90;;;;;;5009196;28;20045;-70
2024/01/20 02:19:38;;;;;;;2.17;1.98;;;0.60;99.90;;;;;;5008571;28;20446;-70
2024/01/20 02:22:12;;;;;;;4.57;2.55;;;0.60;99.90;;;;;;5009977;28;20280;-70
2024/01/20 02:24:39;;;;;;;3.42;2.03;;;0.60;99.90;;;;;;5009953;28;20076;-71
2024/01/20 02:27:05;;;;;;;3.78;2.42;;;0.70;99.90;;;;;;5025523;28;20038;-71
2024/01/20 02:29:31;;;;;;;6.65;2.05;;;0.70;99.90;;;;;;4995060;28;20437;-71
2024/01/20 02:31:56;;;;;;;3.53;2.90;;;0.60;99.90;;;;;;5019609;28;20501;-71
2024/01/20 02:34:22;;;;;;;3.33;2.65;;;0.70;99.90;;;;;;5028545;28;20037;-71
2024/01/20 02:36:48;;;;;;;2.70;1.92;;;0.60;99.90;;;;;;5013498;28;20040;-71
2024/01/20 02:39:14;;;;;;;4.28;3.00;;;0.60;99.90;;;;;;4994433;28;20408;-72
2024/01/20 02:41:39;;;;;;;5.15;3.05;;;0.60;99.90;;;;;;4998381;28;20133;-71
2024/01/20 02:44:08;;;;;;;8.02;4.55;;;0.60;99.90;;;;;;4998500;28;20081;-71
2024/01/20 02:46:34;;;;;;;2.90;2.33;;;0.60;99.90;;;;;;5014656;28;20120;-71
2024/01/20 02:49:00;;;;;;;4.47;2.67;;;0.60;99.90;;;;;;5021896;28;20377;-71
2024/01/20 02:51:25;;;;;;;3.20;2.75;;;0.70;99.90;;;;;;5015929;28;20120;-71
2024/01/20 02:53:51;;;;;;;6.47;2.63;;;0.60;99.90;;;;;;5021026;28;20095;-71
2024/01/20 02:56:17;;;;;;;2.05;1.85;;;0.60;99.90;;;;;;5015319;28;20124;-71
2024/01/20 02:58:42;;;;;;;5.00;2.75;;;0.70;99.90;;;;;;5004778;28;20056;-71
2024/01/20 03:01:08;;;;;;;3.80;3.15;;;0.70;99.90;;;;;;5018765;28;20128;-71
2024/01/20 03:03:34;;;;;;;3.22;2.80;;;0.60;99.90;;;;;;5014542;28;20053;-71
2024/01/20 03:05:59;;;;;;;6.68;2.22;;;0.70;99.90;;;;;;5020060;28;20077;-71
2024/01/20 03:08:25;;;;;;;6.53;3.45;;;0.60;99.90;;;;;;5013932;28;20045;-71
2024/01/20 03:10:51;;;;;;;5.82;2.55;;;0.70;99.90;;;;;;5013729;28;20123;-71
2024/01/20 03:13:16;;;;;;;10.73;3.15;;;0.60;99.90;;;;;;5014225;28;20041;-71
2024/01/20 03:15:42;;;;;;;5.72;3.58;;;0.60;99.90;;;;;;5013866;28;20394;-71
2024/01/20 03:18:08;;;;;;;4.50;3.05;;;0.60;99.90;;;;;;5013868;28;20049;-71
2024/01/20 03:20:33;;;;;;;3.95;2.42;;;0.50;99.90;;;;;;5010529;28;20076;-72
2024/01/20 03:23:01;;;;;;;5.25;4.20;;;0.50;99.90;;;;;;5013834;28;20532;-72
2024/01/20 03:25:26;;;;;;;4.72;2.78;;;0.50;99.90;;;;;;5013587;28;20068;-72
2024/01/20 03:27:56;;;;;;;6.05;3.97;;;0.50;99.90;;;;;;5016751;28;20081;-72
2024/01/20 03:30:22;;;;;;;4.32;2.08;;;0.50;99.90;;;;;;5013764;28;20115;-72
2024/01/20 03:32:48;;;;;;;2.95;2.60;;;0.40;99.90;;;;;;5013403;28;20040;-72
2024/01/20 03:35:14;;;;;;;4.93;3.47;;;0.40;99.90;;;;;;5013083;28;20489;-72
2024/01/20 03:37:40;;;;;;;5.10;3.45;;;0.40;99.90;;;;;;5024528;28;20037;-71
2024/01/20 03:40:06;;;;;;;3.42;1.88;;;0.40;99.90;;;;;;5014055;28;20046;-72
2024/01/20 03:42:32;;;;;;;8.70;3.65;;;0.40;99.90;;;;;;5012891;28;20037;-72
2024/01/20 03:44:58;;;;;;;4.35;3.53;;;0.30;99.90;;;;;;5013851;28;20045;-72
2024/01/20 03:47:23;;;;;;;7.45;3.35;;;0.30;99.90;;;;;;5011201;28;20044;-72
2024/01/20 03:49:49;;;;;;;6.05;4.05;;;0.30;99.90;;;;;;5008641;28;20429;-73
2024/01/20 03:52:15;;;;;;;5.60;3.60;;;0.30;99.90;;;;;;5012044;28;20577;-72
2024/01/20 03:54:40;;;;;;;3.33;2.70;;;0.30;99.90;;;;;;5010962;28;20042;-72
2024/01/20 03:57:06;;;;;;;3.72;3.03;;;0.40;99.90;;;;;;5013338;28;20046;-72
2024/01/20 03:59:32;;;;;;;7.68;3.35;;;0.40;99.90;;;;;;5013688;28;20073;-72
2024/01/20 04:01:57;;;;;;;6.43;4.07;;;0.50;99.90;;;;;;5012557;28;20493;-72
2024/01/20 04:04:23;;;;;;;6.63;3.97;;;0.50;99.90;;;;;;5012800;28;20056;-73
2024/01/20 04:06:49;;;;;;;4.90;2.63;;;0.50;99.90;;;;;;5013117;28;20160;-72
2024/01/20 04:09:15;;;;;;;3.30;2.97;;;0.60;99.90;;;;;;5016168;28;20044;-71
2024/01/20 04:11:40;;;;;;;8.60;3.15;;;0.50;99.90;;;;;;5012660;28;20049;-72
2024/01/20 04:14:06;;;;;;;5.38;3.95;;;0.60;99.90;;;;;;5008394;28;20134;-72
2024/01/20 04:16:32;;;;;;;5.50;2.63;;;0.60;99.90;;;;;;5012849;28;20045;-71
2024/01/20 04:18:58;;;;;;;7.80;4.40;;;0.60;99.90;;;;;;5028126;28;20042;-72
2024/01/20 04:21:23;;;;;;;2.97;2.50;;;0.60;99.90;;;;;;5013178;28;20048;-72
2024/01/20 04:23:49;;;;;;;5.57;3.42;;;0.60;99.90;;;;;;5019904;28;20033;-72
2024/01/20 04:26:16;;;;;;;2.95;2.22;;;0.50;99.90;;;;;;5020485;28;20513;-73
2024/01/20 04:28:42;;;;;;;7.18;4.15;;;0.50;99.90;;;;;;5010681;28;20437;-72
2024/01/20 04:31:07;;;;;;;5.38;3.53;;;0.50;99.90;;;;;;5012242;28;20326;-73
2024/01/20 04:33:36;;;;;;;6.25;2.72;;;0.40;99.90;;;;;;5011842;28;20072;-72
2024/01/20 04:36:03;;;;;;;5.80;2.72;;;0.40;99.90;;;;;;5012756;28;20117;-73
2024/01/20 04:38:28;;;;;;;5.13;3.20;;;0.40;99.90;;;;;;5011300;28;20095;-72
2024/01/20 04:40:54;;;;;;;5.03;1.88;;;0.40;99.90;;;;;;5018892;28;20045;-73
2024/01/20 04:43:20;;;;;;;3.95;2.80;;;0.40;99.90;;;;;;5012102;28;20428;-72
2024/01/20 04:45:46;;;;;;;10.35;3.97;;;0.30;99.90;;;;;;5012483;28;20077;-73
2024/01/20 04:48:11;;;;;;;2.55;1.95;;;0.30;99.90;;;;;;5007411;28;20254;-72
2024/01/20 04:50:37;;;;;;;3.38;3.03;;;0.30;99.90;;;;;;5011747;28;20124;-72
2024/01/20 04:53:03;;;;;;;9.15;3.97;;;0.30;99.90;;;;;;5011254;28;20033;-72
2024/01/20 04:55:29;;;;;;;6.65;3.92;;;0.30;99.90;;;;;;5018036;28;20112;-72
2024/01/20 04:57:54;;;;;;;15.77;2.95;;;0.20;99.90;;;;;;5011999;28;20100;-73
2024/01/20 05:00:21;;;;;;;4.95;2.83;;;0.30;99.90;;;;;;5016908;28;20045;-72
2024/01/20 05:02:47;;;;;;;5.68;3.20;;;0.30;99.90;;;;;;5011621;28;20055;-72
2024/01/20 05:05:12;;;;;;;5.20;2.92;;;0.40;99.90;;;;;;5018462;28;20490;-72
2024/01/20 05:07:38;;;;;;;4.55;3.03;;;0.30;99.90;;;;;;5010250;28;20037;-72
2024/01/20 05:10:04;;;;;;;9.82;3.92;;;0.30;99.90;;;;;;5012486;28;20448;-73
2024/01/20 05:12:30;;;;;;;9.05;5.47;;;0.30;99.90;;;;;;5008575;28;20093;-72
2024/01/20 05:14:56;;;;;;;4.57;3.20;;;0.20;99.90;;;;;;5012519;28;20532;-72
2024/01/20 05:17:22;;;;;;;6.15;4.95;;;0.20;99.90;;;;;;5028236;28;20041;-73
2024/01/20 05:19:47;;;;;;;10.05;5.07;;;0.20;99.90;;;;;;5010930;28;20068;-73
2024/01/20 05:22:13;;;;;;;4.38;3.33;;;0.20;99.90;;;;;;5009708;28;20041;-72
2024/01/20 05:24:39;;;;;;;11.00;4.63;;;0.10;99.90;;;;;;5009573;28;20069;-73
2024/01/20 05:27:05;;;;;;;8.82;4.40;;;0.10;99.90;;;;;;5009248;28;20041;-73
2024/01/20 05:29:30;;;;;;;5.63;2.97;;;0.10;99.90;;;;;;5010806;28;20053;-72
2024/01/20 05:31:56;;;;;;;6.40;4.55;;;0.10;99.90;;;;;;5010953;28;20046;-73
2024/01/20 05:34:21;;;;;;;6.57;4.00;;;0.10;99.90;;;;;;5010497;28;20523;-73
2024/01/20 05:36:47;;;;;;;3.45;2.42;;;0.10;99.90;;;;;;5009761;28;20056;-73
2024/01/20 05:39:13;;;;;;;7.97;4.63;;;0.10;99.90;;;;;;5008541;28;20125;-73
2024/01/20 05:41:39;;;;;;;5.15;3.33;;;0.10;99.90;;;;;;5010479;28;20038;-72
2024/01/20 05:44:05;;;;;;;8.02;1.75;;;0.10;99.90;;;;;;5009412;28;20037;-71
2024/01/20 05:46:31;;;;;;;5.25;2.50;;;0.10;99.90;;;;;;5022498;28;20041;-72
2024/01/20 05:48:56;;;;;;;9.77;4.72;;;0.00;99.90;;;;;;5008165;28;20049;-73
2024/01/20 05:51:22;;;;;;;7.22;4.13;;;0.00;99.90;;;;;;5011781;28;20035;-73
2024/01/20 05:53:48;;;;;;;7.30;4.80;;;0.10;99.90;;;;;;5008862;28;20131;-73
2024/01/20 05:56:14;;;;;;;6.95;3.92;;;0.10;99.90;;;;;;5010851;28;20130;-72
2024/01/20 05:58:39;;;;;;;6.50;3.88;;;0.10;99.90;;;;;;4996011;28;20457;-71
2024/01/20 06:01:08;;;;;;;7.38;3.55;;;0.10;99.90;;;;;;5010962;28;20546;-73
2024/01/20 06:03:34;;;;;;;7.65;3.40;;;0.10;99.90;;;;;;5009561;28;20120;-72
2024/01/20 06:06:00;;;;;;;9.88;4.75;;;0.10;99.90;;;;;;5014033;28;20169;-73
2024/01/20 06:08:26;;;;;;;5.97;3.60;;;0.10;99.90;;;;;;5024139;28;20465;-72
2024/01/20 06:10:52;;;;;;;5.45;2.65;;;0.10;99.90;;;;;;5021168;28;20035;-73
2024/01/20 06:13:18;;;;;;;8.88;4.47;;;0.10;99.90;;;;;;5028437;28;20073;-73
2024/01/20 06:15:44;;;;;;;7.10;4.93;;;0.10;99.90;;;;;;5009152;28;20083;-74
2024/01/20 06:18:10;;;;;;;4.97;2.88;;;0.10;99.90;;;;;;5021650;28;20049;-74
2024/01/20 06:20:35;;;;;;;8.93;4.10;;;0.10;99.90;;;;;;5006903;28;20551;-72
2024/01/20 06:23:01;;;;;;;14.13;4.32;;;0.10;99.90;;;;;;5015201;28;20079;-73
2024/01/20 06:25:27;;;;;;;8.35;3.08;;;0.10;99.90;;;;;;5009920;28;20046;-73
2024/01/20 06:27:53;;;;;;;4.90;3.15;;;0.10;99.90;;;;;;5010523;28;20596;-73
2024/01/20 06:30:18;;;;;;;6.25;4.63;;;0.10;99.90;;;;;;5016247;28;20041;-74
2024/01/20 06:32:45;;;;;;;6.97;3.90;;;0.10;99.90;;;;;;5010517;28;20111;-74
2024/01/20 06:35:11;;;;;;;7.97;4.13;;;0.10;99.90;;;;;;5008903;28;20092;-74
2024/01/20 06:37:36;;;;;;;8.82;4.22;;;0.10;99.90;;;;;;5027733;28;20050;-74
2024/01/20 06:40:03;;;;;;;4.95;3.53;;;0.10;99.90;;;;;;5011647;28;20497;-73
2024/01/20 06:42:29;;;;;;;5.35;3.55;;;0.00;99.90;;;;;;5010367;28;20497;-73
2024/01/20 06:44:54;;;;;;;10.65;4.47;;;0.10;99.90;;;;;;5010385;28;20124;-74
2024/01/20 06:47:20;;;;;;;5.32;4.05;;;0.10;99.90;;;;;;5009263;28;20057;-74
2024/01/20 06:49:50;;;;;;;10.48;3.15;;;0.00;99.90;;;;;;5009988;28;20039;-73
2024/01/20 06:52:16;;;;;;;9.13;3.88;;;0.00;99.90;;;;;;5009640;28;20489;-73
2024/01/20 06:54:42;;;;;;;5.60;3.67;;;0.10;99.90;;;;;;5017252;28;20067;-73
2024/01/20 06:57:07;;;;;;;7.68;3.75;;;0.10;99.90;;;;;;4991677;28;20072;-74
2024/01/20 06:59:33;;;;;;;4.40;2.55;;;0.10;99.90;;;;;;5010926;28;20069;-73
2024/01/20 07:01:59;;;;;;;4.35;2.97;;;0.10;99.90;;;;;;5010970;28;20387;-73
2024/01/20 07:04:24;;;;;;;4.22;3.15;;;0.10;99.90;;;;;;5010383;28;20053;-74
2024/01/20 07:06:50;;;;;;;6.15;3.05;;;0.10;99.90;;;;;;5009229;28;20519;-73
2024/01/20 07:09:16;;;;;;;4.93;2.67;;;0.10;99.90;;;;;;5008535;28;20029;-74
2024/01/20 07:11:41;;;;;;;5.63;4.22;;;0.10;99.90;;;;;;5009633;28;20381;-73
2024/01/20 07:14:07;;;;;;;5.35;3.80;;;0.10;99.90;;;;;;5009212;28;20127;-73
2024/01/20 07:16:33;;;;;;;4.70;2.05;;;0.10;99.90;;;;;;5010123;28;20568;-73
2024/01/20 07:18:58;;;;;;;2.95;2.50;;;0.10;99.90;;;;;;5008757;28;20049;-73
2024/01/20 07:21:24;;;;;;;5.07;3.05;;;0.10;99.90;;;;;;5012807;28;20041;-74
2024/01/20 07:23:50;;;;;;;4.60;2.30;;;0.10;99.90;;;;;;5012406;28;20041;-73
2024/01/20 07:26:15;;;;;;;4.50;3.08;;;0.10;99.90;;;;;;5021831;28;20128;-74
2024/01/20 07:28:41;;;;;;;5.95;3.85;;;0.10;99.90;;;;;;5018371;28;20420;-73
2024/01/20 07:31:07;;;;;;;5.55;3.33;;;0.10;99.90;;;;;;5018855;28;20446;-73
2024/01/20 07:33:33;;;;;;;6.05;4.15;;;0.10;99.90;;;;;;5013489;28;20065;-73
2024/01/20 07:35:59;;;;;;;5.20;3.75;;;0.10;99.90;;;;;;5012871;28;20039;-73
2024/01/20 07:38:25;;;;;;;5.05;2.88;;;0.10;99.90;;;;;;5028972;28;20052;-73
2024/01/20 07:40:53;;;;;;;3.55;2.63;;;0.10;99.90;;;;;;5013741;28;20037;-74
2024/01/20 07:43:20;;;;;;;4.13;2.28;;;0.10;99.90;;;;;;5010264;28;20140;-73
2024/01/20 07:45:46;;;;;;;5.82;3.42;;;0.20;99.90;;;;;;5013439;28;20048;-72
2024/01/20 07:48:12;;;;;;;4.45;3.50;;;0.20;99.90;;;;;;5012537;28;20049;-71
2024/01/20 07:50:37;;;;;;;6.50;2.55;;;0.30;99.90;;;;;;4996852;28;20120;-72
2024/01/20 07:53:03;;;;;;;5.57;2.53;;;0.30;99.90;;;;;;5011841;28;20037;-72
2024/01/20 07:55:29;;;;;;;2.40;1.95;;;0.30;99.90;;;;;;5011833;28;20069;-72
2024/01/20 07:57:55;;;;;;;4.63;3.65;;;0.30;99.90;;;;;;4997150;28;20071;-72
2024/01/20 08:00:21;;;;;;;5.93;2.85;;;0.40;99.90;;;;;;5013038;28;20048;-73
2024/01/20 08:02:47;;;;;;;7.35;4.90;;;0.40;99.90;;;;;;5011740;28;20199;-73
2024/01/20 08:05:13;;;;;;;7.22;4.55;;;0.50;99.90;;;;;;5022152;28;20044;-72
2024/01/20 08:07:38;;;;;;;2.85;2.55;;;0.60;99.90;;;;;;5010464;28;20037;-73
2024/01/20 08:10:04;;;;;;;4.82;2.40;;;0.70;99.90;;;;;;5020081;28;20030;-72
2024/01/20 08:12:31;;;;;;;5.82;4.05;;;0.80;99.90;;;;;;5011351;28;20037;-73
2024/01/20 08:14:56;;;;;;;4.50;2.58;;;0.90;99.90;;;;;;5012901;28;20038;-73
2024/01/20 08:17:23;;;;;;;6.95;3.50;;;1.20;99.90;;;;;;5010355;28;20043;-73
2024/01/20 08:19:51;;;;;;;10.50;4.47;;;1.50;99.90;;;;;;5012244;28;20068;-72
2024/01/20 08:22:17;;;;;;;2.20;1.98;;;1.70;99.90;;;;;;5018837;28;20045;-73
2024/01/20 08:24:43;;;;;;;7.80;3.80;;;1.70;99.90;;;;;;5012125;28;20124;-73
2024/01/20 08:27:09;;;;;;;5.55;2.55;;;1.80;99.90;;;;;;5011808;28;20145;-73
2024/01/20 08:29:34;;;;;;;4.63;3.03;;;1.70;99.90;;;;;;5010394;28;20041;-73
2024/01/20 08:32:00;;;;;;;8.45;2.60;;;1.80;99.90;;;;;;5012864;28;20620;-74
2024/01/20 08:34:26;;;;;;;6.43;4.28;;;1.80;99.90;;;;;;5012052;28;20136;-71
2024/01/20 08:36:52;;;;;;;12.38;4.30;;;1.90;99.90;;;;;;4996078;28;20037;-71
2024/01/20 08:39:20;;;;;;;5.95;2.95;;;2.00;99.90;;;;;;5016562;28;20056;-71
2024/01/20 08:41:47;;;;;;;6.00;4.25;;;2.00;99.90;;;;;;5010699;28;20037;-72
2024/01/20 08:44:13;;;;;;;15.18;4.25;;;2.00;99.90;;;;;;4994847;28;20473;-73
2024/01/20 08:46:39;;;;;;;5.75;3.53;;;2.00;99.90;;;;;;5011550;28;20037;-72
2024/01/20 08:49:05;;;;;;;4.60;2.95;;;2.00;99.90;;;;;;5004776;28;20094;-72
2024/01/20 08:51:30;;;;;;;10.05;4.60;;;2.00;99.90;;;;;;5012287;28;20038;-73
2024/01/20 08:53:56;;;;;;;6.88;3.88;;;2.00;99.90;;;;;;5010407;28;20037;-73
2024/01/20 08:56:22;;;;;;;4.00;2.75;;;2.00;99.90;;;;;;5012832;28;20044;-73
2024/01/20 08:58:47;;;;;;;6.20;3.08;;;2.00;99.90;;;;;;5012426;28;20119;-73
2024/01/20 09:01:13;;;;;;;7.35;3.90;;;1.90;99.90;;;;;;5010458;28;20112;-73
2024/01/20 09:03:39;;;;;;;7.35;4.15;;;1.80;99.90;;;;;;5011406;28;20639;-73
2024/01/20 09:06:05;;;;;;;6.05;3.13;;;1.80;99.90;;;;;;5011373;28;20264;-72
2024/01/20 09:08:31;;;;;;;9.98;4.53;;;1.80;99.90;;;;;;5012094;28;20049;-72
2024/01/20 09:10:58;;;;;;;5.93;4.03;;;1.80;99.90;;;;;;5011939;28;20064;-73
2024/01/20 09:13:23;;;;;;;4.32;2.50;;;1.80;99.90;;;;;;5011626;28;20056;-72
2024/01/20 09:15:49;;;;;;;5.88;2.80;;;1.70;99.90;;;;;;5010333;28;20342;-73
2024/01/20 09:18:17;;;;;;;5.07;2.88;;;1.70;99.90;;;;;;5014616;28;20038;-73
2024/01/20 09:20:43;;;;;;;7.15;3.05;;;1.80;99.90;;;;;;5008590;28;20045;-73
2024/01/20 09:23:09;;;;;;;8.48;4.05;;;1.70;99.90;;;;;;5007427;28;20041;-73
2024/01/20 09:25:34;;;;;;;3.97;3.33;;;1.80;99.90;;;;;;5019510;28;20044;-72
2024/01/20 09:28:00;;;;;;;7.72;3.47;;;1.70;99.90;;;;;;5019759;28;20045;-73
2024/01/20 09:30:26;;;;;;;6.70;3.53;;;1.80;99.90;;;;;;5011839;28;20029;-72
2024/01/20 09:32:52;;;;;;;7.57;3.40;;;1.80;99.90;;;;;;5008286;28;20029;-72
2024/01/20 09:35:18;;;;;;;7.28;4.13;;;1.80;99.90;;;;;;5011536;28;20088;-73
2024/01/20 09:37:43;;;;;;;6.32;3.70;;;1.80;99.90;;;;;;5009175;28;20037;-73
2024/01/20 09:40:09;;;;;;;5.45;2.92;;;1.90;99.90;;;;;;5012157;28;20049;-72
2024/01/20 09:42:35;;;;;;;5.45;3.10;;;1.90;99.90;;;;;;5020080;28;20128;-70
2024/01/20 09:45:02;;;;;;;2.70;1.58;;;2.00;99.90;;;;;;5008146;28;20124;-71
2024/01/20 09:47:28;;;;;;;6.22;2.78;;;2.20;99.90;;;;;;5016635;28;20060;-71
2024/01/20 09:49:53;;;;;;;4.30;2.85;;;2.10;99.90;;;;;;5011260;28;20049;-71
2024/01/20 09:52:27;;;;;;;4.03;3.08;;;2.20;99.90;;;;;;5009976;28;20084;-71
2024/01/20 09:55:18;;;;;;;5.00;3.10;;;2.30;99.90;;;;;;5010462;28;20582;-72
2024/01/20 09:57:46;;;;;;;6.40;3.08;;;2.30;99.90;;;;;;5010239;28;20562;-72
2024/01/20 10:00:13;;;;;;;4.75;2.40;;;2.40;99.90;;;;;;5010422;28;20045;-72
2024/01/20 10:02:46;;;;;;;3.22;1.98;;;2.40;99.90;;;;;;5002504;28;20057;-72
2024/01/20 10:05:13;;;;;;;2.70;1.95;;;2.40;99.90;;;;;;5029006;28;20041;-72
2024/01/20 10:07:39;;;;;;;6.32;2.63;;;2.40;99.90;;;;;;5008977;28;20091;-72
2024/01/20 10:10:18;;;;;;;3.70;3.03;;;2.40;99.90;;;;;;5022423;28;20033;-72
2024/01/20 10:12:57;;;;;;;5.68;2.47;;;2.40;99.90;;;;;;5009191;28;20044;-72
2024/01/20 10:15:29;;;;;;;8.18;3.88;;;2.40;99.90;;;;;;5006916;28;20124;-72
2024/01/20 10:17:56;;;;;;;7.03;2.63;;;2.40;99.90;;;;;;5009593;28;20401;-72
2024/01/20 10:20:26;;;;;;;4.05;3.30;;;2.50;99.90;;;;;;5010130;28;20354;-73
2024/01/20 10:22:54;;;;;;;5.18;2.80;;;2.40;99.90;;;;;;4991955;28;20465;-73
2024/01/20 10:25:20;;;;;;;4.50;3.25;;;2.40;99.90;;;;;;5009989;28;20041;-73
2024/01/20 10:27:50;;;;;;;6.00;3.10;;;2.40;99.90;;;;;;5011261;28;20068;-72
2024/01/20 10:30:26;;;;;;;5.68;2.67;;;2.50;99.90;;;;;;5008344;28;20176;-72
2024/01/20 10:32:53;;;;;;;7.40;3.55;;;2.50;99.90;;;;;;5010708;28;20029;-72
2024/01/20 10:35:19;;;;;;;7.07;3.33;;;2.50;99.90;;;;;;5009132;28;20397;-72
2024/01/20 10:37:46;;;;;;;6.20;3.30;;;2.60;99.90;;;;;;4993061;28;20080;-72
2024/01/20 10:40:15;;;;;;;5.82;3.45;;;2.60;99.90;;;;;;5006666;28;20493;-72
2024/01/20 10:42:45;;;;;;;3.65;2.15;;;2.60;99.90;;;;;;5010163;28;20073;-72
2024/01/20 10:45:17;;;;;;;6.53;3.53;;;2.70;99.90;;;;;;5011135;28;20388;-71
2024/01/20 10:48:04;;;;;;;6.90;3.50;;;2.70;99.90;;;;;;5009966;28;20073;-71
2024/01/20 10:50:29;;;;;;;3.53;2.30;;;2.70;99.90;;;;;;5026877;28;20069;-72
2024/01/20 10:52:55;;;;;;;4.22;2.85;;;2.80;99.90;;;;;;5008024;28;20073;-72
2024/01/20 10:55:23;;;;;;;3.15;2.13;;;2.80;99.90;;;;;;5011779;28;20057;-72
2024/01/20 10:57:52;;;;;;;5.28;3.10;;;2.90;99.90;;;;;;5030922;28;20045;-72
2024/01/20 11:00:20;;;;;;;4.45;2.65;;;2.90;99.90;;;;;;5013424;28;20056;-71
2024/01/20 11:02:46;;;;;;;9.77;3.65;;;2.90;99.90;;;;;;5014231;28;20067;-72
2024/01/20 11:05:22;;;;;;;4.88;3.00;;;2.90;99.90;;;;;;5014179;28;20053;-72
2024/01/20 11:08:04;;;;;;;4.03;2.80;;;2.90;99.90;;;;;;4996927;28;20512;-72
2024/01/20 11:10:30;;;;;;;5.00;3.40;;;2.90;99.90;;;;;;5013485;28;20065;-72
2024/01/20 11:13:15;;;;;;;6.78;2.60;;;2.90;99.90;;;;;;5014231;28;20547;-72
2024/01/20 11:15:41;;;;;;;7.45;3.40;;;2.90;99.90;;;;;;5027079;28;20119;-72
2024/01/20 11:18:17;;;;;;;4.70;2.97;;;2.90;99.90;;;;;;5014545;28;20044;-72
2024/01/20 11:20:56;;;;;;;5.72;2.67;;;2.90;99.90;;;;;;4995278;28;20103;-72
2024/01/20 11:23:22;;;;;;;3.42;2.33;;;2.90;99.90;;;;;;5012105;28;20049;-72
2024/01/20 11:25:48;;;;;;;5.57;2.72;;;2.90;99.90;;;;;;5013198;28;20034;-72
2024/01/20 11:28:30;;;;;;;5.18;2.55;;;2.90;99.90;;;;;;5012719;28;20124;-72
2024/01/20 11:30:56;;;;;;;5.30;2.38;;;2.90;99.90;;;;;;5013787;28;20484;-72
2024/01/20 11:33:24;;;;;;;4.65;2.97;;;2.90;99.90;;;;;;5013266;28;20115;-71
2024/01/20 11:35:53;;;;;;;3.28;2.55;;;2.80;99.90;;;;;;4997651;28;20465;-72
2024/01/20 11:38:19;;;;;;;9.90;4.40;;;2.90;99.90;;;;;;5028789;28;20120;-72
2024/01/20 11:40:56;;;;;;;3.55;2.03;;;2.90;99.90;;;;;;5012987;28;20041;-72
2024/01/20 11:43:21;;;;;;;5.25;2.78;;;2.90;99.90;;;;;;4994703;28;20489;-71
2024/01/20 11:45:47;;;;;;;5.13;2.83;;;2.90;99.90;;;;;;5012524;28;20041;-72
2024/01/20 11:48:17;;;;;;;6.03;3.13;;;3.00;99.90;;;;;;5011174;28;20086;-73
2024/01/20 11:50:43;;;;;;;4.90;3.15;;;3.10;99.90;;;;;;5015096;28;20046;-73
2024/01/20 11:53:09;;;;;;;6.93;2.88;;;3.00;99.90;;;;;;5012911;28;20564;-72
2024/01/20 11:55:34;;;;;;;7.35;4.20;;;3.10;99.90;;;;;;5013816;28;20116;-73
2024/01/20 11:58:00;;;;;;;5.55;2.60;;;3.10;99.90;;;;;;4996330;28;20045;-71
2024/01/20 12:00:26;;;;;;;5.07;2.25;;;3.00;99.90;;;;;;5012762;28;20128;-71
2024/01/20 12:02:53;;;;;;;6.00;2.72;;;3.00;99.90;;;;;;5012719;28;20136;-71
2024/01/20 12:05:20;;;;;;;4.95;3.03;;;3.00;99.90;;;;;;5013021;28;20133;-72
2024/01/20 12:07:46;;;;;;;5.13;2.97;;;3.00;99.90;;;;;;4998715;28;20038;-72
2024/01/20 12:10:15;;;;;;;4.18;3.25;;;3.00;99.90;;;;;;5012897;28;20424;-72
2024/01/20 12:12:41;;;;;;;4.30;2.60;;;3.00;99.90;;;;;;5012040;28;20681;-72
2024/01/20 12:15:07;;;;;;;6.70;3.85;;;3.10;99.90;;;;;;5021033;28;20121;-72
2024/01/20 12:17:33;;;;;;;4.90;2.85;;;3.10;99.90;;;;;;5013124;28;20120;-72
2024/01/20 12:19:59;;;;;;;5.00;3.65;;;3.20;99.90;;;;;;5012066;28;20180;-72
2024/01/20 12:22:24;;;;;;;3.75;2.17;;;3.10;99.90;;;;;;5011832;28;20037;-72
2024/01/20 12:24:51;;;;;;;5.97;2.92;;;3.10;99.90;;;;;;5011167;28;20038;-72
2024/01/20 12:27:18;;;;;;;6.07;3.70;;;3.10;99.90;;;;;;5007845;28;20057;-72
2024/01/20 12:29:44;;;;;;;7.28;2.97;;;3.10;99.90;;;;;;5012738;28;20045;-73
2024/01/20 12:32:10;;;;;;;3.95;2.92;;;3.20;99.90;;;;;;5018275;28;20029;-72
2024/01/20 12:34:36;;;;;;;7.53;3.08;;;3.20;99.90;;;;;;5011703;28;20091;-72
2024/01/20 12:37:01;;;;;;;3.10;2.15;;;3.20;99.90;;;;;;5012509;28;20115;-71
2024/01/20 12:39:28;;;;;;;5.18;2.70;;;3.20;99.90;;;;;;5000549;28;20044;-72
2024/01/20 12:41:54;;;;;;;6.05;2.60;;;3.20;99.90;;;;;;5013059;28;20373;-72
2024/01/20 12:44:20;;;;;;;5.28;3.45;;;3.20;99.90;;;;;;5011073;28;20037;-72
2024/01/20 12:46:50;;;;;;;3.58;2.47;;;3.20;99.90;;;;;;4997983;28;20033;-72
2024/01/20 12:49:16;;;;;;;5.43;3.08;;;3.30;99.90;;;;;;4995850;28;20069;-72
2024/01/20 12:51:42;;;;;;;5.03;2.40;;;3.30;99.90;;;;;;5012687;28;20076;-72
2024/01/20 12:54:08;;;;;;;6.03;3.25;;;3.40;99.90;;;;;;5013307;28;20041;-72